Time;durP1;ratioP1;P1;durP2;ratioP2;P2;SDS_P1;SDS_P2;PMS_P1;PMS_P2;Temp;Humidity;BMP_temperature;BMP_pressure;BME280_temperature;BME280_humidity;BME280_pressure;Samples;Min_cycle;Max_cycle;Signal;HPM_P1;HPM_P2
2021/07/14 00:01:29;;;;;;;16.20;15.50;;;12.70;99.90;;;;;;5034761;28;20049;-61
2021/07/14 00:03:56;;;;;;;17.05;16.35;;;12.80;99.90;;;;;;5034275;28;20393;-63
2021/07/14 00:06:24;;;;;;;16.15;15.45;;;12.90;99.90;;;;;;5033570;28;20425;-62
2021/07/14 00:08:51;;;;;;;15.27;14.57;;;12.90;99.90;;;;;;5034202;28;20427;-62
2021/07/14 00:11:18;;;;;;;14.82;14.23;;;12.90;99.90;;;;;;5034180;28;20028;-62
2021/07/14 00:22:07;;;;;;;16.02;15.07;;;12.90;99.90;;;;;;5034083;28;20029;-58
2021/07/14 00:24:35;;;;;;;15.80;14.88;;;12.90;99.90;;;;;;5034094;28;20036;-60
2021/07/14 00:27:05;;;;;;;15.80;15.10;;;13.10;99.90;;;;;;5033989;28;20033;-60
2021/07/14 00:29:36;;;;;;;15.30;14.60;;;13.20;99.90;;;;;;5034341;28;20040;-61
2021/07/14 00:32:07;;;;;;;15.23;14.52;;;13.30;99.90;;;;;;5034000;28;20091;-61
2021/07/14 00:34:35;;;;;;;15.02;14.32;;;13.40;99.90;;;;;;5034315;28;20021;-59
2021/07/14 00:37:02;;;;;;;14.80;14.13;;;13.40;99.90;;;;;;5033798;28;20057;-59
2021/07/14 00:39:29;;;;;;;13.88;13.27;;;13.50;99.90;;;;;;5033724;28;20021;-60
2021/07/14 00:41:57;;;;;;;14.95;14.25;;;13.70;99.90;;;;;;5033676;28;20099;-59
2021/07/14 00:44:24;;;;;;;14.30;13.70;;;13.80;99.90;;;;;;5033722;28;20390;-60
2021/07/14 00:46:53;;;;;;;13.50;12.90;;;13.90;99.90;;;;;;5033642;28;20025;-60
2021/07/14 00:49:21;;;;;;;15.13;14.10;;;14.00;99.90;;;;;;5033635;28;20037;-56
2021/07/14 00:51:49;;;;;;;11.88;11.30;;;14.20;99.90;;;;;;5033873;28;20032;-57
2021/07/14 00:54:16;;;;;;;9.90;9.43;;;14.30;99.90;;;;;;5033451;28;20025;-59
2021/07/14 00:56:45;;;;;;;9.15;8.80;;;14.30;99.90;;;;;;5033458;28;20026;-61
2021/07/14 00:59:12;;;;;;;9.25;8.75;;;14.40;99.90;;;;;;5034124;28;20067;-61
2021/07/14 01:01:40;;;;;;;10.18;9.55;;;14.40;99.90;;;;;;5033842;28;20023;-59
2021/07/14 01:04:28;;;;;;;9.23;8.82;;;14.40;99.90;;;;;;5033228;28;20471;-60
2021/07/14 01:10:41;;;;;;;8.63;8.18;;;14.50;99.90;;;;;;5033779;28;20435;-62
2021/07/14 01:13:24;;;;;;;8.45;8.15;;;14.50;99.90;;;;;;5032507;28;20032;-60
2021/07/14 01:16:16;;;;;;;9.50;9.02;;;14.40;99.90;;;;;;5032198;28;20117;-60
2021/07/14 01:18:55;;;;;;;8.27;7.97;;;14.40;99.90;;;;;;5031787;28;20046;-60
2021/07/14 01:21:50;;;;;;;10.70;10.30;;;14.30;99.90;;;;;;5032353;28;20084;-63
2021/07/14 01:25:09;;;;;;;10.25;9.85;;;14.20;99.90;;;;;;5033163;28;20041;-61
2021/07/14 01:27:40;;;;;;;6.70;6.40;;;14.20;99.90;;;;;;5030984;28;20034;-61
2021/07/14 01:30:14;;;;;;;10.45;9.95;;;14.20;99.90;;;;;;5031805;28;20013;-60
2021/07/14 01:32:42;;;;;;;9.57;9.00;;;14.20;99.90;;;;;;5032856;28;20029;-60
2021/07/14 01:35:25;;;;;;;7.80;7.47;;;14.10;99.90;;;;;;5032875;28;20021;-59
2021/07/14 01:37:54;;;;;;;12.07;11.57;;;14.10;99.90;;;;;;5032921;28;20033;-59
2021/07/14 01:40:23;;;;;;;9.07;8.77;;;14.00;99.90;;;;;;5035945;28;20025;-59
2021/07/14 01:42:57;;;;;;;9.60;9.20;;;14.00;99.90;;;;;;5036895;28;20049;-59
2021/07/14 01:45:33;;;;;;;9.07;8.68;;;14.00;99.90;;;;;;5036929;28;20017;-59
2021/07/14 01:48:02;;;;;;;8.07;7.78;;;14.00;99.90;;;;;;5036871;28;20034;-59
2021/07/14 01:50:31;;;;;;;8.55;8.15;;;14.10;99.90;;;;;;5036768;28;20140;-59
2021/07/14 01:53:00;;;;;;;9.60;9.30;;;14.10;99.90;;;;;;5036637;28;20022;-59
2021/07/14 01:55:30;;;;;;;9.13;8.73;;;14.10;99.90;;;;;;5036518;28;20029;-54
2021/07/14 01:57:58;;;;;;;8.67;8.27;;;14.10;99.90;;;;;;5036654;28;20029;-57
2021/07/14 02:00:27;;;;;;;9.20;8.90;;;14.00;99.90;;;;;;5036524;28;20013;-58
2021/07/14 02:03:15;;;;;;;9.95;9.50;;;14.00;99.90;;;;;;5035210;28;20025;-58
2021/07/14 02:05:44;;;;;;;9.93;9.60;;;14.00;99.90;;;;;;5036357;28;20045;-58
2021/07/14 02:08:12;;;;;;;10.27;9.98;;;14.00;99.90;;;;;;5036490;28;20391;-58
2021/07/14 02:10:41;;;;;;;9.65;9.25;;;13.90;99.90;;;;;;5036269;28;20026;-57
2021/07/14 02:13:09;;;;;;;11.07;10.50;;;13.90;99.90;;;;;;5036245;28;20049;-57
2021/07/14 02:15:37;;;;;;;10.65;10.25;;;13.90;99.90;;;;;;5036284;28;20026;-57
2021/07/14 02:18:11;;;;;;;9.75;9.40;;;13.80;99.90;;;;;;5036444;28;20067;-58
2021/07/14 02:20:39;;;;;;;11.80;11.20;;;13.80;99.90;;;;;;5036252;28;20096;-57
2021/07/14 02:23:08;;;;;;;10.15;9.75;;;13.70;99.90;;;;;;5036125;28;20037;-57
2021/07/14 02:25:36;;;;;;;10.57;10.00;;;13.70;99.90;;;;;;5036264;28;20384;-58
2021/07/14 02:28:05;;;;;;;10.93;10.32;;;13.70;99.90;;;;;;5036136;28;20026;-58
2021/07/14 02:30:33;;;;;;;10.80;10.20;;;13.70;99.90;;;;;;5035981;28;20033;-57
2021/07/14 02:33:09;;;;;;;10.82;10.32;;;13.60;99.90;;;;;;5035790;28;20079;-58
2021/07/14 02:35:40;;;;;;;11.52;10.93;;;13.60;99.90;;;;;;5035871;28;20049;-58
2021/07/14 02:38:27;;;;;;;11.15;10.65;;;13.60;99.90;;;;;;5035869;28;20030;-57
2021/07/14 02:41:20;;;;;;;10.90;10.50;;;13.70;99.90;;;;;;5035977;28;20024;-58
2021/07/14 02:43:55;;;;;;;10.30;9.60;;;13.60;99.90;;;;;;5035865;28;20501;-58
2021/07/14 02:46:27;;;;;;;10.20;9.70;;;13.60;99.90;;;;;;5035778;28;20029;-58
2021/07/14 02:48:57;;;;;;;9.18;8.77;;;13.70;99.90;;;;;;5035778;28;20022;-60
2021/07/14 02:51:28;;;;;;;9.30;8.70;;;13.70;99.90;;;;;;5035675;28;20041;-60
2021/07/14 02:54:00;;;;;;;9.25;8.82;;;13.70;99.90;;;;;;5035617;28;20277;-60
2021/07/14 02:56:30;;;;;;;11.88;11.32;;;13.70;99.90;;;;;;5035519;28;20474;-58
2021/07/14 02:59:04;;;;;;;13.38;12.68;;;13.60;99.90;;;;;;5035718;28;20040;-57
2021/07/14 03:01:33;;;;;;;15.30;14.70;;;13.50;99.90;;;;;;5035511;28;20093;-58
2021/07/14 03:04:00;;;;;;;15.88;15.18;;;13.40;99.90;;;;;;5035266;28;20017;-58
2021/07/14 03:06:33;;;;;;;18.15;17.35;;;13.30;99.90;;;;;;5035395;28;20501;-60
2021/07/14 03:09:06;;;;;;;19.85;18.85;;;13.20;99.90;;;;;;5035269;28;20478;-59
2021/07/14 03:11:41;;;;;;;20.70;19.75;;;13.10;99.90;;;;;;5035054;28;20052;-59
2021/07/14 03:14:11;;;;;;;23.02;21.83;;;13.00;99.90;;;;;;5035235;28;20105;-59
2021/07/14 03:16:40;;;;;;;24.33;23.15;;;13.00;99.90;;;;;;5034939;28;20053;-59
2021/07/14 03:19:09;;;;;;;25.38;24.02;;;12.90;99.90;;;;;;5035166;28;20029;-59
2021/07/14 03:21:37;;;;;;;26.02;24.48;;;12.90;99.90;;;;;;5035333;28;20025;-59
2021/07/14 03:24:09;;;;;;;26.58;25.17;;;12.90;99.90;;;;;;5035062;28;20018;-58
2021/07/14 03:26:39;;;;;;;27.75;26.35;;;13.00;99.90;;;;;;5034924;28;20017;-58
2021/07/14 03:29:08;;;;;;;29.60;28.10;;;13.00;99.90;;;;;;5034985;28;20022;-57
2021/07/14 03:31:35;;;;;;;29.70;28.17;;;13.00;99.90;;;;;;5034806;28;20382;-58
2021/07/14 03:34:03;;;;;;;30.70;29.00;;;13.00;99.90;;;;;;5034759;28;20418;-56
2021/07/14 03:36:31;;;;;;;32.55;30.40;;;13.00;99.90;;;;;;5034541;28;20024;-56
2021/07/14 03:39:00;;;;;;;33.80;31.58;;;13.10;99.90;;;;;;5034633;28;20390;-55
2021/07/14 03:41:29;;;;;;;35.42;33.17;;;13.00;99.90;;;;;;5034650;28;20104;-58
2021/07/14 03:43:57;;;;;;;36.55;33.88;;;13.10;99.90;;;;;;5034712;28;20021;-59
2021/07/14 03:46:26;;;;;;;37.50;35.28;;;13.10;99.90;;;;;;5034614;28;20079;-50
2021/07/14 03:48:55;;;;;;;38.40;36.00;;;13.10;99.90;;;;;;5034711;28;20021;-52
2021/07/14 03:51:26;;;;;;;38.30;35.67;;;13.20;99.90;;;;;;5034379;28;20025;-59
2021/07/14 03:53:55;;;;;;;38.40;35.70;;;13.20;99.90;;;;;;5034366;28;20028;-55
2021/07/14 03:56:26;;;;;;;37.65;35.10;;;13.20;99.90;;;;;;5034284;28;20021;-57
2021/07/14 03:58:56;;;;;;;38.20;35.70;;;13.30;99.90;;;;;;5034106;28;20147;-59
2021/07/14 04:01:24;;;;;;;37.63;35.08;;;13.30;99.90;;;;;;5033746;28;20021;-58
2021/07/14 04:03:53;;;;;;;38.10;35.60;;;13.40;99.90;;;;;;5033797;28;20104;-60
2021/07/14 04:06:22;;;;;;;38.25;35.75;;;13.40;99.90;;;;;;5034094;28;20026;-59
2021/07/14 04:09:17;;;;;;;38.70;35.97;;;13.40;99.90;;;;;;5034056;28;20017;-59
2021/07/14 04:11:58;;;;;;;38.20;35.80;;;13.30;99.90;;;;;;5033778;28;20026;-57
2021/07/14 04:14:28;;;;;;;39.75;36.95;;;13.40;99.90;;;;;;5033959;28;20102;-59
2021/07/14 04:16:57;;;;;;;40.28;37.67;;;13.30;99.90;;;;;;5033965;28;20122;-57
2021/07/14 04:19:25;;;;;;;40.03;37.60;;;13.20;99.90;;;;;;5034040;28;20018;-57
2021/07/14 04:21:53;;;;;;;40.25;37.60;;;13.20;99.90;;;;;;5033848;28;20529;-57
2021/07/14 04:24:21;;;;;;;39.67;37.08;;;13.20;99.90;;;;;;5033861;28;20022;-57
2021/07/14 04:26:49;;;;;;;41.28;38.67;;;13.10;99.90;;;;;;5033819;28;20045;-58
2021/07/14 04:29:17;;;;;;;41.13;38.53;;;13.10;99.90;;;;;;5033710;28;20080;-58
2021/07/14 04:31:45;;;;;;;40.55;37.85;;;13.10;99.90;;;;;;5033692;28;20506;-58
2021/07/14 04:34:12;;;;;;;41.88;39.33;;;13.10;99.90;;;;;;5033575;28;20474;-58
2021/07/14 04:36:43;;;;;;;43.08;40.17;;;13.00;99.90;;;;;;5033388;28;20029;-58
2021/07/14 04:39:11;;;;;;;42.80;40.10;;;13.00;99.90;;;;;;5033610;28;20017;-57
2021/07/14 04:41:40;;;;;;;40.85;38.08;;;12.90;99.90;;;;;;5032283;28;20040;-58
2021/07/14 04:44:10;;;;;;;42.00;39.20;;;12.80;99.90;;;;;;5033729;28;20013;-58
2021/07/14 04:46:38;;;;;;;46.60;43.33;;;12.90;99.90;;;;;;5033499;28;20026;-58
2021/07/14 04:49:07;;;;;;;44.80;41.58;;;12.90;99.90;;;;;;5033396;28;20496;-58
2021/07/14 04:51:35;;;;;;;44.50;40.92;;;12.90;99.90;;;;;;5033360;28;20030;-58
2021/07/14 04:54:02;;;;;;;46.75;43.58;;;12.90;99.90;;;;;;5033220;28;20025;-58
2021/07/14 04:56:30;;;;;;;48.03;44.72;;;12.90;99.90;;;;;;5033262;28;20099;-58
2021/07/14 04:58:57;;;;;;;48.10;44.75;;;12.90;99.90;;;;;;5032216;28;20437;-58
2021/07/14 05:01:24;;;;;;;48.83;45.53;;;12.80;99.90;;;;;;5033175;28;20021;-58
2021/07/14 05:03:52;;;;;;;47.75;44.28;;;12.80;99.90;;;;;;5033338;28;20071;-57
2021/07/14 05:06:19;;;;;;;45.80;42.35;;;12.80;99.90;;;;;;5032977;28;20036;-58
2021/07/14 05:08:47;;;;;;;46.33;42.78;;;12.70;99.90;;;;;;5032981;28;20022;-58
2021/07/14 05:11:15;;;;;;;49.22;45.65;;;12.80;99.90;;;;;;5033133;28;20022;-58
2021/07/14 05:13:43;;;;;;;49.40;46.00;;;12.80;99.90;;;;;;5032015;28;20367;-57
2021/07/14 05:16:11;;;;;;;49.35;45.78;;;12.80;99.90;;;;;;5032652;28;20025;-58
2021/07/14 05:18:39;;;;;;;51.95;48.35;;;12.80;99.90;;;;;;5032666;28;20018;-56
2021/07/14 05:21:06;;;;;;;52.70;48.65;;;12.80;99.90;;;;;;5032928;28;20021;-58
2021/07/14 05:23:34;;;;;;;50.17;46.58;;;12.80;99.90;;;;;;5032939;28;20049;-58
2021/07/14 05:26:02;;;;;;;52.72;48.97;;;12.80;99.90;;;;;;5032604;28;20108;-58
2021/07/14 05:28:29;;;;;;;52.65;48.95;;;12.70;99.90;;;;;;5032508;28;20080;-59
2021/07/14 05:30:57;;;;;;;51.17;47.58;;;12.70;99.90;;;;;;5032705;28;20532;-58
2021/07/14 05:33:24;;;;;;;49.30;45.80;;;12.70;99.90;;;;;;5031281;28;20077;-59
2021/07/14 05:35:54;;;;;;;50.72;47.05;;;12.60;99.90;;;;;;5032601;28;20071;-59
2021/07/14 05:38:22;;;;;;;49.75;46.17;;;12.60;99.90;;;;;;5032695;28;20474;-59
2021/07/14 05:40:51;;;;;;;50.03;46.42;;;12.60;99.90;;;;;;5032572;28;20037;-58
2021/07/14 05:43:19;;;;;;;48.53;45.03;;;12.60;99.90;;;;;;5032580;28;20100;-59
2021/07/14 05:45:47;;;;;;;52.42;48.67;;;12.60;99.90;;;;;;5032567;28;20022;-59
2021/07/14 05:48:15;;;;;;;57.13;53.13;;;12.60;99.90;;;;;;5032645;28;20021;-59
2021/07/14 05:50:45;;;;;;;55.60;51.70;;;12.60;99.90;;;;;;5031328;28;20086;-59
2021/07/14 05:53:15;;;;;;;58.13;54.03;;;12.60;99.90;;;;;;5032503;28;20029;-59
2021/07/14 05:55:42;;;;;;;55.72;51.92;;;12.60;99.90;;;;;;5032374;28;20025;-59
2021/07/14 05:58:11;;;;;;;53.92;49.92;;;12.60;99.90;;;;;;5032377;28;20025;-59
2021/07/14 06:00:39;;;;;;;51.05;47.42;;;12.50;99.90;;;;;;5032292;28;20037;-60
2021/07/14 06:03:07;;;;;;;50.55;46.95;;;12.50;99.90;;;;;;5032304;28;20025;-60
2021/07/14 06:05:35;;;;;;;50.83;47.22;;;12.40;99.90;;;;;;5031065;28;20069;-60
2021/07/14 06:08:03;;;;;;;51.45;47.75;;;12.40;99.90;;;;;;5031413;28;20443;-59
2021/07/14 06:10:35;;;;;;;51.17;47.67;;;12.40;99.90;;;;;;5032373;28;20025;-60
2021/07/14 06:13:03;;;;;;;52.72;49.08;;;12.50;99.90;;;;;;5032233;28;20101;-59
2021/07/14 06:15:31;;;;;;;50.50;47.00;;;12.50;99.90;;;;;;5032073;28;20493;-59
2021/07/14 06:17:59;;;;;;;52.92;49.22;;;12.40;99.90;;;;;;5030712;28;20057;-59
2021/07/14 06:20:26;;;;;;;51.15;47.65;;;12.50;99.90;;;;;;5032260;28;20096;-58
2021/07/14 06:22:54;;;;;;;50.95;47.22;;;12.40;99.90;;;;;;5032180;28;20036;-58
2021/07/14 06:25:22;;;;;;;49.13;45.50;;;12.50;99.90;;;;;;5033329;28;20022;-54
2021/07/14 06:27:49;;;;;;;49.60;45.95;;;12.50;99.90;;;;;;5034594;28;20163;-53
2021/07/14 06:30:18;;;;;;;49.33;45.70;;;12.60;99.90;;;;;;5035713;28;20097;-55
2021/07/14 06:32:51;;;;;;;50.13;46.40;;;12.70;99.90;;;;;;5034263;28;20060;-53
2021/07/14 06:35:21;;;;;;;49.42;45.83;;;12.70;99.90;;;;;;5035627;28;20509;-53
2021/07/14 06:37:49;;;;;;;47.33;43.93;;;12.70;99.90;;;;;;5035455;28;20025;-52
2021/07/14 06:40:19;;;;;;;49.67;45.92;;;12.60;99.90;;;;;;5034221;28;20617;-53
2021/07/14 06:42:49;;;;;;;50.67;47.08;;;12.60;99.90;;;;;;5018253;28;20124;-54
2021/07/14 06:45:22;;;;;;;50.33;46.83;;;12.60;99.90;;;;;;5035330;28;20036;-50
2021/07/14 06:47:51;;;;;;;51.88;48.13;;;12.50;99.90;;;;;;5034326;28;20490;-55
2021/07/14 06:50:18;;;;;;;50.63;47.00;;;12.40;99.90;;;;;;5035473;28;20151;-53
2021/07/14 06:52:45;;;;;;;52.63;49.03;;;12.40;99.90;;;;;;5035474;28;20029;-57
2021/07/14 06:55:13;;;;;;;47.20;43.63;;;12.30;99.90;;;;;;5035448;28;20041;-56
2021/07/14 06:57:41;;;;;;;47.22;43.72;;;12.30;99.90;;;;;;5035355;28;20079;-56
2021/07/14 07:00:11;;;;;;;46.55;43.25;;;12.20;99.90;;;;;;5035123;28;20039;-54
2021/07/14 07:02:39;;;;;;;47.60;44.00;;;12.20;99.90;;;;;;5035210;28;20026;-56
2021/07/14 07:05:07;;;;;;;45.20;41.90;;;12.20;99.90;;;;;;5034998;28;20054;-56
2021/07/14 07:07:35;;;;;;;50.35;46.85;;;12.10;99.90;;;;;;5034907;28;20037;-55
2021/07/14 07:10:03;;;;;;;51.08;47.58;;;12.10;99.90;;;;;;5034998;28;20151;-58
2021/07/14 07:12:31;;;;;;;50.25;46.88;;;12.10;99.90;;;;;;5035208;28;20022;-56
2021/07/14 07:14:58;;;;;;;48.45;45.05;;;12.00;99.90;;;;;;5035149;28;20028;-58
2021/07/14 07:17:25;;;;;;;45.35;42.05;;;12.00;99.90;;;;;;5035049;28;20428;-58
2021/07/14 07:19:53;;;;;;;46.70;43.40;;;12.00;99.90;;;;;;5034979;28;20017;-58
2021/07/14 07:22:20;;;;;;;47.13;43.83;;;12.00;99.90;;;;;;5034924;28;20025;-57
2021/07/14 07:24:47;;;;;;;45.10;41.90;;;12.00;99.90;;;;;;5034969;28;20025;-58
2021/07/14 07:27:15;;;;;;;43.85;40.75;;;12.00;99.90;;;;;;5034881;28;20040;-58
2021/07/14 07:29:44;;;;;;;44.33;41.13;;;12.00;99.90;;;;;;5034915;28;20034;-58
2021/07/14 07:32:11;;;;;;;47.50;44.20;;;12.00;99.90;;;;;;5035197;28;20026;-59
2021/07/14 07:34:39;;;;;;;46.15;42.95;;;12.00;99.90;;;;;;5034890;28;20049;-62
2021/07/14 07:37:06;;;;;;;45.33;42.22;;;12.00;99.90;;;;;;5033773;28;20087;-59
2021/07/14 07:39:33;;;;;;;45.67;42.58;;;12.00;99.90;;;;;;5034932;28;20394;-58
2021/07/14 07:42:03;;;;;;;56.63;52.53;;;12.10;99.90;;;;;;5034813;28;20021;-59
2021/07/14 07:44:30;;;;;;;54.97;51.08;;;12.10;99.90;;;;;;5034588;28;20023;-60
2021/07/14 07:46:58;;;;;;;52.63;48.92;;;12.20;99.90;;;;;;5034621;28;20036;-57
2021/07/14 07:49:25;;;;;;;46.35;43.25;;;12.20;99.90;;;;;;5034548;28;20482;-60
2021/07/14 07:51:53;;;;;;;47.38;44.28;;;12.30;99.90;;;;;;5034471;28;20021;-59
2021/07/14 07:54:20;;;;;;;47.08;43.85;;;12.30;99.90;;;;;;5034493;28;20487;-58
2021/07/14 07:56:48;;;;;;;49.08;45.90;;;12.30;99.90;;;;;;5034267;28;20036;-57
2021/07/14 07:59:15;;;;;;;47.97;44.88;;;12.30;99.90;;;;;;5034200;28;20033;-59
2021/07/14 08:01:42;;;;;;;44.30;41.30;;;12.30;99.90;;;;;;5034460;28;20467;-59
2021/07/14 08:04:10;;;;;;;44.30;41.10;;;12.20;99.90;;;;;;5034175;28;20021;-59
2021/07/14 08:06:38;;;;;;;43.00;40.00;;;12.20;99.90;;;;;;5034339;28;20084;-59
2021/07/14 08:09:06;;;;;;;44.10;41.10;;;12.20;99.90;;;;;;5034380;28;20498;-59
2021/07/14 08:11:34;;;;;;;49.95;46.72;;;12.20;99.90;;;;;;5034265;28;20101;-61
2021/07/14 08:14:02;;;;;;;46.35;43.35;;;12.30;99.90;;;;;;5034186;28;20048;-62
2021/07/14 08:16:30;;;;;;;47.88;44.78;;;12.30;99.90;;;;;;5034030;28;20022;-59
2021/07/14 08:18:57;;;;;;;47.28;44.22;;;12.30;99.90;;;;;;5033943;28;20049;-61
2021/07/14 08:21:25;;;;;;;50.00;46.97;;;12.40;99.90;;;;;;5033980;28;20055;-61
2021/07/14 08:23:52;;;;;;;47.97;45.08;;;12.40;99.90;;;;;;5034077;28;20025;-61
2021/07/14 08:26:20;;;;;;;47.63;44.42;;;12.40;99.90;;;;;;5033733;28;20270;-60
2021/07/14 08:28:47;;;;;;;51.67;48.53;;;12.40;99.90;;;;;;5033735;28;20486;-59
2021/07/14 08:31:14;;;;;;;47.25;44.35;;;12.40;99.90;;;;;;5033619;28;20036;-60
2021/07/14 08:33:42;;;;;;;47.70;44.70;;;12.40;99.90;;;;;;5033601;28;20026;-59
2021/07/14 08:36:09;;;;;;;46.65;43.35;;;12.40;99.90;;;;;;5033375;28;20502;-62
2021/07/14 08:38:37;;;;;;;47.55;44.20;;;12.40;99.90;;;;;;5033430;28;20036;-62
2021/07/14 08:41:07;;;;;;;47.67;44.60;;;12.40;99.90;;;;;;5033639;28;20104;-63
2021/07/14 08:43:37;;;;;;;49.55;46.45;;;12.50;99.90;;;;;;5033952;28;20017;-62
2021/07/14 08:46:04;;;;;;;46.17;43.13;;;12.40;99.90;;;;;;5033582;28;20437;-60
2021/07/14 08:48:33;;;;;;;45.05;41.88;;;12.40;99.90;;;;;;5033349;28;20022;-60
2021/07/14 08:51:01;;;;;;;48.35;44.78;;;12.40;99.90;;;;;;5033493;28;20030;-62
2021/07/14 08:53:29;;;;;;;48.88;45.58;;;12.40;99.90;;;;;;5033532;28;20033;-60
2021/07/14 08:55:59;;;;;;;45.00;42.00;;;12.30;99.90;;;;;;5033302;28;20028;-60
2021/07/14 08:58:27;;;;;;;50.00;46.70;;;12.30;99.90;;;;;;5033210;28;20025;-60
2021/07/14 09:01:00;;;;;;;47.20;44.10;;;12.30;99.90;;;;;;5033259;28;20021;-60
2021/07/14 09:03:30;;;;;;;50.35;47.15;;;12.30;99.90;;;;;;5033358;28;20025;-61
2021/07/14 09:05:57;;;;;;;47.87;44.67;;;12.40;99.90;;;;;;5033172;28;20091;-60
2021/07/14 09:08:24;;;;;;;49.65;46.35;;;12.30;99.90;;;;;;5033381;28;20033;-60
2021/07/14 09:10:52;;;;;;;49.28;46.00;;;12.30;99.90;;;;;;5031864;28;20505;-60
2021/07/14 09:13:31;;;;;;;49.63;46.33;;;12.30;99.90;;;;;;5033284;28;20021;-60
2021/07/14 09:15:58;;;;;;;51.05;47.85;;;12.30;99.90;;;;;;5033129;28;20112;-60
2021/07/14 09:18:28;;;;;;;45.13;42.13;;;12.30;99.90;;;;;;5033254;28;20109;-60
2021/07/14 09:20:56;;;;;;;50.28;46.72;;;12.40;99.90;;;;;;5033684;28;20036;-60
2021/07/14 09:23:29;;;;;;;45.58;42.63;;;12.40;99.90;;;;;;5032816;28;20026;-59
2021/07/14 09:25:59;;;;;;;47.17;44.00;;;12.40;99.90;;;;;;5033030;28;20104;-59
2021/07/14 09:28:32;;;;;;;45.00;41.90;;;12.40;99.90;;;;;;5033003;28;20109;-59
2021/07/14 09:31:02;;;;;;;45.17;42.00;;;12.40;99.90;;;;;;5032876;28;20025;-59
2021/07/14 09:33:29;;;;;;;43.85;40.85;;;12.50;99.90;;;;;;5032839;28;20029;-58
2021/07/14 09:35:59;;;;;;;46.33;43.22;;;12.50;99.90;;;;;;5032730;28;20120;-58
2021/07/14 09:38:32;;;;;;;46.15;43.05;;;12.50;99.90;;;;;;5032748;28;20021;-57
2021/07/14 09:41:11;;;;;;;45.85;42.75;;;12.50;99.90;;;;;;5032840;28;20018;-57
2021/07/14 09:43:48;;;;;;;45.40;42.30;;;12.50;99.90;;;;;;5033065;28;20025;-56
2021/07/14 09:46:17;;;;;;;45.15;42.25;;;12.50;99.90;;;;;;5033097;28;20076;-58
2021/07/14 09:48:47;;;;;;;45.33;42.22;;;12.50;99.90;;;;;;5033484;28;20041;-58
2021/07/14 09:51:20;;;;;;;47.30;44.28;;;12.40;99.90;;;;;;5031957;28;20064;-57
2021/07/14 09:53:53;;;;;;;47.83;44.85;;;12.40;99.90;;;;;;5031575;28;20030;-57
2021/07/14 09:56:28;;;;;;;46.17;43.35;;;12.40;99.90;;;;;;5032730;28;20025;-55
2021/07/14 09:59:28;;;;;;;47.92;44.67;;;12.50;99.90;;;;;;5032617;28;20036;-57
2021/07/14 10:01:58;;;;;;;46.80;43.80;;;12.50;99.90;;;;;;5035697;28;20033;-56
2021/07/14 10:04:30;;;;;;;44.72;41.70;;;12.50;99.90;;;;;;5037086;28;20084;-56
2021/07/14 10:07:18;;;;;;;47.28;44.30;;;12.50;99.90;;;;;;5036436;28;20475;-58
2021/07/14 10:09:47;;;;;;;45.67;42.67;;;12.40;99.90;;;;;;5036431;28;20040;-57
2021/07/14 10:12:32;;;;;;;45.58;42.67;;;12.50;99.90;;;;;;5036421;28;20411;-54
2021/07/14 10:15:20;;;;;;;45.22;42.42;;;12.50;99.90;;;;;;5036552;28;20036;-57
2021/07/14 10:17:52;;;;;;;46.95;43.97;;;12.40;99.90;;;;;;5036364;28;20056;-57
2021/07/14 10:20:32;;;;;;;43.63;40.92;;;12.40;99.90;;;;;;5036345;28;20076;-57
2021/07/14 10:23:03;;;;;;;44.33;41.50;;;12.40;99.90;;;;;;5036289;28;20097;-56
2021/07/14 10:25:33;;;;;;;44.38;41.25;;;12.30;99.90;;;;;;5036039;28;20075;-59
2021/07/14 10:28:01;;;;;;;43.75;40.88;;;12.30;99.90;;;;;;5036047;28;20109;-59
2021/07/14 10:30:29;;;;;;;43.97;41.03;;;12.30;99.90;;;;;;5036123;28;20025;-56
2021/07/14 10:32:58;;;;;;;44.35;41.40;;;12.30;99.90;;;;;;5036096;28;20026;-58
2021/07/14 10:35:29;;;;;;;43.03;40.00;;;12.30;99.90;;;;;;5036201;28;20482;-57
2021/07/14 10:38:02;;;;;;;44.70;41.70;;;12.30;99.90;;;;;;5036060;28;20025;-58
2021/07/14 10:40:30;;;;;;;45.60;42.70;;;12.40;99.90;;;;;;5034836;28;20100;-58
2021/07/14 10:42:58;;;;;;;44.55;41.65;;;12.50;99.90;;;;;;5035888;28;20470;-60
2021/07/14 10:45:25;;;;;;;44.30;41.50;;;12.50;99.90;;;;;;5034554;28;20498;-61
2021/07/14 10:47:55;;;;;;;43.80;40.95;;;12.40;99.90;;;;;;5035851;28;20025;-59
2021/07/14 10:50:25;;;;;;;44.75;41.85;;;12.50;99.90;;;;;;5036106;28;20029;-58
2021/07/14 10:52:52;;;;;;;41.83;39.03;;;12.40;99.90;;;;;;5035804;28;20593;-59
2021/07/14 10:55:26;;;;;;;45.33;42.33;;;12.30;99.90;;;;;;5034330;28;20108;-60
2021/07/14 10:57:55;;;;;;;43.97;41.17;;;12.30;99.90;;;;;;5035600;28;20052;-57
2021/07/14 11:00:22;;;;;;;46.03;43.03;;;12.20;99.90;;;;;;5035521;28;20065;-60
2021/07/14 11:02:53;;;;;;;47.70;44.70;;;12.20;99.90;;;;;;5035589;28;20505;-59
2021/07/14 11:05:45;;;;;;;48.33;45.22;;;12.10;99.90;;;;;;5035466;28;20458;-60
2021/07/14 11:08:39;;;;;;;42.50;39.70;;;12.10;99.90;;;;;;5035414;28;20040;-60
2021/07/14 11:11:07;;;;;;;47.60;44.50;;;12.10;99.90;;;;;;5034561;28;20026;-60
2021/07/14 11:13:37;;;;;;;42.60;39.60;;;12.10;99.90;;;;;;5034673;28;20029;-59
2021/07/14 11:16:32;;;;;;;43.45;40.35;;;12.10;99.90;;;;;;5035248;28;20033;-59
2021/07/14 11:19:19;;;;;;;42.35;39.55;;;12.10;99.90;;;;;;5035190;28;20422;-60
2021/07/14 11:21:52;;;;;;;43.13;40.22;;;12.10;99.90;;;;;;5035245;28;20533;-59
2021/07/14 11:24:46;;;;;;;47.38;44.38;;;12.10;99.90;;;;;;5035127;28;20021;-59
2021/07/14 11:27:20;;;;;;;50.95;47.58;;;12.10;99.90;;;;;;5035230;28;20096;-59
2021/07/14 11:29:47;;;;;;;50.13;47.03;;;12.00;99.90;;;;;;5035050;28;20021;-61
2021/07/14 11:32:38;;;;;;;51.33;48.13;;;12.00;99.90;;;;;;5035212;28;20083;-62
2021/07/14 11:35:16;;;;;;;51.00;47.80;;;12.00;99.90;;;;;;5034949;28;20033;-61
2021/07/14 11:37:57;;;;;;;52.60;49.33;;;12.00;99.90;;;;;;5034710;28;20017;-62
2021/07/14 11:40:23;;;;;;;;;;;11.90;99.90;;;;;;5035406;28;20041;-60
2021/07/14 11:42:54;;;;;;;53.30;49.95;;;11.90;99.90;;;;;;5034832;28;20358;-59
2021/07/14 11:45:39;;;;;;;51.30;47.90;;;11.90;99.90;;;;;;5034695;28;20024;-60
2021/07/14 11:48:11;;;;;;;55.05;51.58;;;11.90;99.90;;;;;;5034758;28;20394;-60
2021/07/14 11:50:56;;;;;;;51.10;47.88;;;11.80;99.90;;;;;;5034573;28;20532;-59
2021/07/14 11:53:32;;;;;;;57.40;54.10;;;11.80;99.90;;;;;;5035042;28;20022;-62
2021/07/14 11:56:00;;;;;;;51.97;48.58;;;11.70;99.90;;;;;;5034782;28;20043;-63
2021/07/14 11:58:47;;;;;;;57.53;54.13;;;11.70;99.90;;;;;;5034409;28;20083;-60
2021/07/14 12:01:25;;;;;;;54.30;51.10;;;11.60;99.90;;;;;;5034417;28;20437;-61
2021/07/14 12:06:46;;;;;;;50.35;47.13;;;11.40;99.90;;;;;;5034500;28;20068;-59
2021/07/14 12:09:13;;;;;;;51.05;47.78;;;11.40;99.90;;;;;;5034465;28;20026;-60
2021/07/14 12:11:51;;;;;;;50.95;47.78;;;11.30;99.90;;;;;;5034201;28;20392;-60
2021/07/14 12:14:26;;;;;;;52.65;49.35;;;11.30;99.90;;;;;;5032787;28;20017;-60
2021/07/14 12:17:14;;;;;;;51.70;48.47;;;11.20;99.90;;;;;;5034026;28;20021;-61
2021/07/14 12:19:44;;;;;;;52.08;48.95;;;11.20;99.90;;;;;;5033849;28;20053;-60
2021/07/14 12:22:19;;;;;;;54.90;51.70;;;11.00;99.90;;;;;;5033878;28;20026;-60
2021/07/14 12:24:54;;;;;;;54.28;50.85;;;11.00;99.90;;;;;;5033938;28;20076;-61
2021/07/14 12:27:29;;;;;;;51.35;47.88;;;10.90;99.90;;;;;;5033972;28;20501;-61
2021/07/14 12:30:04;;;;;;;49.13;45.63;;;10.90;99.90;;;;;;5034051;28;20022;-61
2021/07/14 12:32:40;;;;;;;51.05;47.53;;;10.80;99.90;;;;;;5033811;28;20048;-60
2021/07/14 12:35:22;;;;;;;57.85;54.15;;;10.80;99.90;;;;;;5034221;28;20029;-61
2021/07/14 12:37:52;;;;;;;60.17;56.15;;;10.80;99.90;;;;;;5033573;28;20029;-60
2021/07/14 12:40:30;;;;;;;59.57;55.60;;;10.70;99.90;;;;;;5033700;28;20437;-58
2021/07/14 12:43:00;;;;;;;59.42;55.42;;;10.70;99.90;;;;;;5033655;28;20014;-58
2021/07/14 12:45:27;;;;;;;59.23;55.07;;;10.70;99.90;;;;;;5033679;28;20567;-60
2021/07/14 12:47:55;;;;;;;58.85;54.92;;;10.70;99.90;;;;;;5033488;28;20490;-60
2021/07/14 12:50:25;;;;;;;62.75;58.38;;;10.70;99.90;;;;;;5033556;28;20025;-61
2021/07/14 12:53:00;;;;;;;61.87;57.57;;;10.70;99.90;;;;;;5033730;28;20025;-61
2021/07/14 12:55:29;;;;;;;61.90;57.85;;;10.70;99.90;;;;;;5033501;28;20257;-60
2021/07/14 12:58:08;;;;;;;63.03;58.83;;;10.70;99.90;;;;;;5033221;28;20026;-60
2021/07/14 13:00:37;;;;;;;55.53;51.53;;;10.70;99.90;;;;;;5033250;28;20052;-58
2021/07/14 13:03:07;;;;;;;59.05;54.85;;;10.60;99.90;;;;;;5033279;28;20052;-58